Nearby METAR Reports

 

K1A5 - Macon/Franklin, North Carolina, USA
Distance from station: WSW 16mi, 25km
Updated: Sat, 24-Jul-2021 9:35am EDT
Mist, Overcast
Mist, Overcast
 Wind from calm
Wind: Calm
Temperature: 70°F , 21°C
Dew Point: 68°F , 20°C
Humidity: 94%
Barometer: 30.23 inHg , 1023.7 hPa
Summary: Mist
Clouds: Overcast
Visibility: 1 mile , 2 km
Cloud details: Overcast 300 ft
2021/07/24 13:35 K1A5 241335Z AUTO 00000KT 1SM BR OVC003 21/20 A3023 RMK AO2 T02060201
KAVL - Asheville, North Carolina, USA
Distance from station: ENE 36mi, 59km
Updated: Sat, 24-Jul-2021 9:01am EDT
Partly cloudy
Partly cloudy
 Wind from SE
Wind: SE 6 mph , 9 km/h
Temperature: 72°F , 22°C
Dew Point: 70°F , 21°C
Humidity: 94%
Barometer: 30.19 inHg , 1022.4 hPa
Clouds: Partly cloudy
Visibility: 7 miles , 11 km
Cloud details: Partly cloudy 800 ft
2021/07/24 13:01 KAVL 241301Z 14005KT 7SM SCT008 22/21 A3019 RMK AO2 T02220206
 
KRHP - Andrews, North Carolina, USA
Distance from station: WSW 40mi, 64km
Updated: Sat, 24-Jul-2021 9:15am EDT
Mostly cloudy
Mostly cloudy
 Wind from calm
Wind: Calm
Temperature: 72°F , 22°C
Dew Point: 70°F , 21°C
Humidity: 94%
Barometer: 30.17 inHg , 1021.7 hPa
Clouds: Mostly cloudy
Visibility: 10 miles , 16 km
Cloud details: Mostly cloudy 4400 ft
2021/07/24 13:15 KRHP 241315Z AUTO 00000KT 10SM BKN044 22/21 A3017 RMK AO2 T02240210
KLQK - Pickens, South Carolina, USA
Distance from station: SE 42mi, 68km
Updated: Sat, 24-Jul-2021 9:15am EDT
Light rain, Overcast
Light rain, Overcast
 Wind from calm
Wind: Calm
Temperature: 73°F , 23°C
Dew Point: 73°F , 23°C
Humidity: 100%
Barometer: 30.14 inHg , 1020.7 hPa
Summary: Light rain
Clouds: Overcast
Visibility: 1 1/2 miles , 2.4 km
Cloud details: Partly cloudy 100 ft
Mostly cloudy 2700 ft
Overcast 3700 ft
2021/07/24 13:15 KLQK 241315Z AUTO 00000KT 1 1/2SM -RA SCT001 BKN027 OVC037 23/23 A3014 RMK AO2 P0001 T02260226
 
KCEU - Clemson, South Carolina, USA
Distance from station: SSE 46mi, 75km
Updated: Sat, 24-Jul-2021 8:54am EDT
Mist, Overcast
Mist, Overcast
 Wind from calm
Wind: Calm
Temperature: 73°F , 23°C
Dew Point: 73°F , 23°C
Humidity: 100%
Barometer: 30.15 inHg , 1021 hPa
Summary: Mist
Clouds: Overcast
Visibility: 4 miles , 6 km
Cloud details: Mostly cloudy 500 ft
Overcast 1900 ft
2021/07/24 12:54 KCEU 241254Z AUTO 00000KT 4SM BR BKN005 OVC019 23/23 A3015 RMK AO2 CIG 003V007 SLP198 T02330228
KTOC - Toccoa, Georgia, USA
Distance from station: S 49mi, 79km
Updated: Sat, 24-Jul-2021 9:15am EDT
Overcast
Overcast
 Wind from calm
Wind: Calm
Temperature: 72°F , 22°C
Dew Point: 70°F , 21°C
Humidity: 94%
Barometer: 30.15 inHg , 1021 hPa
Clouds: Overcast
Visibility: 10 miles , 16 km
Cloud details: Partly cloudy 400 ft
Partly cloudy 1000 ft
Overcast 1600 ft
2021/07/24 13:15 KTOC 241315Z AUTO 00000KT 10SM SCT004 SCT010 OVC016 22/21 A3015 RMK AO2 T02230206